sensor_id;sensor_type;location;lat;lon;timestamp;P1;durP1;ratioP1;P2;durP2;ratioP2
75932;SDS011;64803;52.356;5.310;2023-08-17T00:01:57;4.85;;;1.80;;
75932;SDS011;64803;52.356;5.310;2023-08-17T00:04:23;6.60;;;1.85;;
75932;SDS011;64803;52.356;5.310;2023-08-17T00:06:49;11.40;;;2.10;;
75932;SDS011;64803;52.356;5.310;2023-08-17T00:09:15;6.43;;;1.98;;
75932;SDS011;64803;52.356;5.310;2023-08-17T00:11:41;7.68;;;1.65;;
75932;SDS011;64803;52.356;5.310;2023-08-17T00:14:07;7.88;;;2.08;;
75932;SDS011;64803;52.356;5.310;2023-08-17T00:16:33;8.27;;;1.85;;
75932;SDS011;64803;52.356;5.310;2023-08-17T00:18:59;8.02;;;2.28;;
75932;SDS011;64803;52.356;5.310;2023-08-17T00:21:25;5.95;;;1.70;;
75932;SDS011;64803;52.356;5.310;2023-08-17T00:23:51;10.50;;;2.50;;
75932;SDS011;64803;52.356;5.310;2023-08-17T00:26:17;9.38;;;2.38;;
75932;SDS011;64803;52.356;5.310;2023-08-17T00:28:43;13.27;;;2.63;;
75932;SDS011;64803;52.356;5.310;2023-08-17T00:31:10;7.43;;;1.95;;
75932;SDS011;64803;52.356;5.310;2023-08-17T00:33:36;5.32;;;2.20;;
75932;SDS011;64803;52.356;5.310;2023-08-17T00:36:02;8.35;;;2.25;;
75932;SDS011;64803;52.356;5.310;2023-08-17T00:38:29;5.55;;;2.28;;
75932;SDS011;64803;52.356;5.310;2023-08-17T00:40:55;7.05;;;2.35;;
75932;SDS011;64803;52.356;5.310;2023-08-17T00:43:22;7.78;;;2.70;;
75932;SDS011;64803;52.356;5.310;2023-08-17T00:45:49;6.60;;;2.50;;
75932;SDS011;64803;52.356;5.310;2023-08-17T00:48:15;9.20;;;2.60;;
75932;SDS011;64803;52.356;5.310;2023-08-17T00:50:41;11.07;;;2.50;;
75932;SDS011;64803;52.356;5.310;2023-08-17T00:53:07;8.57;;;2.78;;
75932;SDS011;64803;52.356;5.310;2023-08-17T00:55:39;11.05;;;2.70;;
75932;SDS011;64803;52.356;5.310;2023-08-17T00:58:06;9.48;;;3.05;;
75932;SDS011;64803;52.356;5.310;2023-08-17T01:00:33;8.32;;;3.25;;
75932;SDS011;64803;52.356;5.310;2023-08-17T01:02:59;8.10;;;2.53;;
75932;SDS011;64803;52.356;5.310;2023-08-17T01:05:26;10.48;;;2.80;;
75932;SDS011;64803;52.356;5.310;2023-08-17T01:07:55;7.70;;;2.42;;
75932;SDS011;64803;52.356;5.310;2023-08-17T01:10:21;7.95;;;2.83;;
75932;SDS011;64803;52.356;5.310;2023-08-17T01:20:33;10.82;;;2.80;;
75932;SDS011;64803;52.356;5.310;2023-08-17T01:23:06;8.35;;;3.00;;
75932;SDS011;64803;52.356;5.310;2023-08-17T01:25:33;9.40;;;3.30;;
75932;SDS011;64803;52.356;5.310;2023-08-17T01:28:02;9.38;;;2.90;;
75932;SDS011;64803;52.356;5.310;2023-08-17T01:30:33;10.65;;;2.97;;
75932;SDS011;64803;52.356;5.310;2023-08-17T01:33:24;11.48;;;2.88;;
75932;SDS011;64803;52.356;5.310;2023-08-17T01:36:01;8.05;;;2.65;;
75932;SDS011;64803;52.356;5.310;2023-08-17T01:38:33;7.03;;;2.70;;
75932;SDS011;64803;52.356;5.310;2023-08-17T01:41:01;9.63;;;3.50;;
75932;SDS011;64803;52.356;5.310;2023-08-17T01:43:29;12.90;;;3.40;;
75932;SDS011;64803;52.356;5.310;2023-08-17T01:45:56;10.90;;;2.90;;
75932;SDS011;64803;52.356;5.310;2023-08-17T01:48:22;6.22;;;3.00;;
75932;SDS011;64803;52.356;5.310;2023-08-17T01:50:48;10.88;;;2.97;;
75932;SDS011;64803;52.356;5.310;2023-08-17T01:53:13;9.13;;;4.00;;
75932;SDS011;64803;52.356;5.310;2023-08-17T01:55:41;7.88;;;2.53;;
75932;SDS011;64803;52.356;5.310;2023-08-17T01:58:07;15.05;;;3.33;;
75932;SDS011;64803;52.356;5.310;2023-08-17T02:00:33;7.43;;;2.53;;
75932;SDS011;64803;52.356;5.310;2023-08-17T02:02:59;8.27;;;2.97;;
75932;SDS011;64803;52.356;5.310;2023-08-17T02:05:25;6.55;;;2.88;;
75932;SDS011;64803;52.356;5.310;2023-08-17T02:07:53;12.85;;;3.25;;
75932;SDS011;64803;52.356;5.310;2023-08-17T02:10:19;10.48;;;3.58;;
75932;SDS011;64803;52.356;5.310;2023-08-17T02:12:45;7.80;;;2.55;;
75932;SDS011;64803;52.356;5.310;2023-08-17T02:15:12;8.43;;;3.58;;
75932;SDS011;64803;52.356;5.310;2023-08-17T02:17:38;7.80;;;3.05;;
75932;SDS011;64803;52.356;5.310;2023-08-17T02:20:05;7.18;;;2.90;;
75932;SDS011;64803;52.356;5.310;2023-08-17T02:22:31;8.73;;;3.08;;
75932;SDS011;64803;52.356;5.310;2023-08-17T02:24:57;9.23;;;2.95;;
75932;SDS011;64803;52.356;5.310;2023-08-17T02:27:23;7.78;;;2.60;;
75932;SDS011;64803;52.356;5.310;2023-08-17T02:29:49;9.45;;;2.80;;
75932;SDS011;64803;52.356;5.310;2023-08-17T02:32:16;9.68;;;3.17;;
75932;SDS011;64803;52.356;5.310;2023-08-17T02:34:41;8.07;;;2.45;;
75932;SDS011;64803;52.356;5.310;2023-08-17T02:37:07;7.75;;;2.70;;
75932;SDS011;64803;52.356;5.310;2023-08-17T02:39:33;8.77;;;3.42;;
75932;SDS011;64803;52.356;5.310;2023-08-17T02:41:59;8.73;;;2.90;;
75932;SDS011;64803;52.356;5.310;2023-08-17T02:44:26;9.10;;;2.63;;
75932;SDS011;64803;52.356;5.310;2023-08-17T02:46:54;6.68;;;1.85;;
75932;SDS011;64803;52.356;5.310;2023-08-17T02:49:20;12.80;;;3.50;;
75932;SDS011;64803;52.356;5.310;2023-08-17T02:51:46;8.48;;;2.40;;
75932;SDS011;64803;52.356;5.310;2023-08-17T02:54:12;7.03;;;2.55;;
75932;SDS011;64803;52.356;5.310;2023-08-17T02:56:38;9.27;;;2.63;;
75932;SDS011;64803;52.356;5.310;2023-08-17T02:59:04;6.75;;;2.75;;
75932;SDS011;64803;52.356;5.310;2023-08-17T03:01:30;9.38;;;2.80;;
75932;SDS011;64803;52.356;5.310;2023-08-17T03:03:57;8.27;;;2.63;;
75932;SDS011;64803;52.356;5.310;2023-08-17T03:06:23;7.95;;;2.60;;
75932;SDS011;64803;52.356;5.310;2023-08-17T03:08:49;7.65;;;2.58;;
75932;SDS011;64803;52.356;5.310;2023-08-17T03:11:18;7.50;;;2.50;;
75932;SDS011;64803;52.356;5.310;2023-08-17T03:13:44;8.65;;;2.55;;
75932;SDS011;64803;52.356;5.310;2023-08-17T03:16:11;8.60;;;2.53;;
75932;SDS011;64803;52.356;5.310;2023-08-17T03:18:37;10.50;;;2.63;;
75932;SDS011;64803;52.356;5.310;2023-08-17T03:21:03;7.97;;;2.58;;
75932;SDS011;64803;52.356;5.310;2023-08-17T03:23:29;9.15;;;3.05;;
75932;SDS011;64803;52.356;5.310;2023-08-17T03:25:56;8.77;;;2.63;;
75932;SDS011;64803;52.356;5.310;2023-08-17T03:28:22;9.68;;;3.38;;
75932;SDS011;64803;52.356;5.310;2023-08-17T03:30:48;8.25;;;2.85;;
75932;SDS011;64803;52.356;5.310;2023-08-17T03:33:14;9.60;;;3.28;;
75932;SDS011;64803;52.356;5.310;2023-08-17T03:35:41;7.32;;;2.15;;
75932;SDS011;64803;52.356;5.310;2023-08-17T03:38:07;6.80;;;2.25;;
75932;SDS011;64803;52.356;5.310;2023-08-17T03:40:33;10.65;;;2.60;;
75932;SDS011;64803;52.356;5.310;2023-08-17T03:43:00;8.70;;;2.47;;
75932;SDS011;64803;52.356;5.310;2023-08-17T03:45:26;10.60;;;2.30;;
75932;SDS011;64803;52.356;5.310;2023-08-17T03:47:52;7.70;;;2.33;;
75932;SDS011;64803;52.356;5.310;2023-08-17T03:50:18;6.20;;;2.50;;
75932;SDS011;64803;52.356;5.310;2023-08-17T03:52:44;18.35;;;3.00;;
75932;SDS011;64803;52.356;5.310;2023-08-17T03:55:10;8.63;;;2.78;;
75932;SDS011;64803;52.356;5.310;2023-08-17T03:57:36;8.90;;;2.13;;
75932;SDS011;64803;52.356;5.310;2023-08-17T04:00:02;8.18;;;2.42;;
75932;SDS011;64803;52.356;5.310;2023-08-17T04:02:39;8.10;;;2.45;;
75932;SDS011;64803;52.356;5.310;2023-08-17T04:05:05;6.15;;;2.08;;
75932;SDS011;64803;52.356;5.310;2023-08-17T04:07:31;8.35;;;2.55;;
75932;SDS011;64803;52.356;5.310;2023-08-17T04:09:57;7.57;;;2.47;;
75932;SDS011;64803;52.356;5.310;2023-08-17T04:12:23;9.98;;;2.20;;
75932;SDS011;64803;52.356;5.310;2023-08-17T04:14:49;6.60;;;2.15;;
75932;SDS011;64803;52.356;5.310;2023-08-17T04:17:15;10.00;;;2.70;;
75932;SDS011;64803;52.356;5.310;2023-08-17T04:19:42;10.80;;;2.45;;
75932;SDS011;64803;52.356;5.310;2023-08-17T04:22:08;10.52;;;2.33;;
75932;SDS011;64803;52.356;5.310;2023-08-17T04:24:35;7.57;;;2.10;;
75932;SDS011;64803;52.356;5.310;2023-08-17T04:27:02;8.20;;;2.83;;
75932;SDS011;64803;52.356;5.310;2023-08-17T04:29:28;13.73;;;2.63;;
75932;SDS011;64803;52.356;5.310;2023-08-17T04:31:58;10.93;;;3.17;;
75932;SDS011;64803;52.356;5.310;2023-08-17T04:34:25;10.50;;;2.08;;
75932;SDS011;64803;52.356;5.310;2023-08-17T04:36:50;5.68;;;1.48;;
75932;SDS011;64803;52.356;5.310;2023-08-17T04:39:17;9.25;;;2.97;;
75932;SDS011;64803;52.356;5.310;2023-08-17T04:41:43;6.88;;;2.10;;
75932;SDS011;64803;52.356;5.310;2023-08-17T04:44:12;9.20;;;2.58;;
75932;SDS011;64803;52.356;5.310;2023-08-17T04:46:38;10.55;;;2.08;;
75932;SDS011;64803;52.356;5.310;2023-08-17T04:49:04;5.88;;;1.80;;
75932;SDS011;64803;52.356;5.310;2023-08-17T04:51:30;6.65;;;2.20;;
75932;SDS011;64803;52.356;5.310;2023-08-17T04:53:57;7.97;;;2.30;;
75932;SDS011;64803;52.356;5.310;2023-08-17T04:56:23;7.38;;;1.85;;
75932;SDS011;64803;52.356;5.310;2023-08-17T04:58:49;5.95;;;2.05;;
75932;SDS011;64803;52.356;5.310;2023-08-17T05:01:16;7.22;;;2.13;;
75932;SDS011;64803;52.356;5.310;2023-08-17T05:03:42;6.15;;;2.00;;
75932;SDS011;64803;52.356;5.310;2023-08-17T05:06:08;6.18;;;2.30;;
75932;SDS011;64803;52.356;5.310;2023-08-17T05:08:34;7.55;;;2.50;;
75932;SDS011;64803;52.356;5.310;2023-08-17T05:11:01;10.10;;;2.45;;
75932;SDS011;64803;52.356;5.310;2023-08-17T05:13:27;7.35;;;1.83;;
75932;SDS011;64803;52.356;5.310;2023-08-17T05:15:56;6.00;;;2.03;;
75932;SDS011;64803;52.356;5.310;2023-08-17T05:18:22;8.15;;;1.92;;
75932;SDS011;64803;52.356;5.310;2023-08-17T05:20:48;6.93;;;2.10;;
75932;SDS011;64803;52.356;5.310;2023-08-17T05:23:14;6.80;;;2.30;;
75932;SDS011;64803;52.356;5.310;2023-08-17T05:25:40;7.35;;;2.50;;
75932;SDS011;64803;52.356;5.310;2023-08-17T05:28:06;7.60;;;2.22;;
75932;SDS011;64803;52.356;5.310;2023-08-17T05:30:32;10.65;;;3.58;;
75932;SDS011;64803;52.356;5.310;2023-08-17T05:32:59;10.45;;;2.70;;
75932;SDS011;64803;52.356;5.310;2023-08-17T05:35:26;8.65;;;2.35;;
75932;SDS011;64803;52.356;5.310;2023-08-17T05:37:52;8.45;;;2.45;;
75932;SDS011;64803;52.356;5.310;2023-08-17T05:40:18;8.43;;;2.40;;
75932;SDS011;64803;52.356;5.310;2023-08-17T05:42:44;6.78;;;2.38;;
75932;SDS011;64803;52.356;5.310;2023-08-17T05:45:11;8.65;;;2.58;;
75932;SDS011;64803;52.356;5.310;2023-08-17T05:47:37;9.98;;;2.28;;
75932;SDS011;64803;52.356;5.310;2023-08-17T05:50:03;6.90;;;3.00;;
75932;SDS011;64803;52.356;5.310;2023-08-17T05:52:29;5.82;;;2.28;;
75932;SDS011;64803;52.356;5.310;2023-08-17T05:57:22;10.20;;;2.97;;
75932;SDS011;64803;52.356;5.310;2023-08-17T05:59:49;8.15;;;2.78;;
75932;SDS011;64803;52.356;5.310;2023-08-17T06:02:15;7.35;;;2.35;;
75932;SDS011;64803;52.356;5.310;2023-08-17T06:04:41;8.45;;;2.83;;
75932;SDS011;64803;52.356;5.310;2023-08-17T06:07:07;8.98;;;3.25;;
75932;SDS011;64803;52.356;5.310;2023-08-17T06:09:33;9.43;;;3.13;;
75932;SDS011;64803;52.356;5.310;2023-08-17T06:11:59;8.88;;;3.00;;
75932;SDS011;64803;52.356;5.310;2023-08-17T06:14:25;11.10;;;3.25;;
75932;SDS011;64803;52.356;5.310;2023-08-17T06:16:51;11.60;;;3.03;;
75932;SDS011;64803;52.356;5.310;2023-08-17T06:19:17;9.40;;;2.58;;
75932;SDS011;64803;52.356;5.310;2023-08-17T06:21:43;6.72;;;2.40;;
75932;SDS011;64803;52.356;5.310;2023-08-17T06:24:09;7.63;;;2.42;;
75932;SDS011;64803;52.356;5.310;2023-08-17T06:26:35;7.35;;;2.50;;
75932;SDS011;64803;52.356;5.310;2023-08-17T06:29:01;5.38;;;2.10;;
75932;SDS011;64803;52.356;5.310;2023-08-17T06:31:27;8.07;;;2.53;;
75932;SDS011;64803;52.356;5.310;2023-08-17T06:33:53;7.32;;;1.73;;
75932;SDS011;64803;52.356;5.310;2023-08-17T06:36:20;8.40;;;2.47;;
75932;SDS011;64803;52.356;5.310;2023-08-17T06:38:46;8.52;;;2.67;;
75932;SDS011;64803;52.356;5.310;2023-08-17T06:41:13;11.57;;;3.45;;
75932;SDS011;64803;52.356;5.310;2023-08-17T06:43:39;15.00;;;3.28;;
75932;SDS011;64803;52.356;5.310;2023-08-17T06:46:05;11.45;;;2.70;;
75932;SDS011;64803;52.356;5.310;2023-08-17T06:48:31;7.35;;;2.72;;
75932;SDS011;64803;52.356;5.310;2023-08-17T06:50:57;11.75;;;3.13;;
75932;SDS011;64803;52.356;5.310;2023-08-17T06:53:23;5.88;;;2.40;;
75932;SDS011;64803;52.356;5.310;2023-08-17T06:55:50;8.07;;;2.53;;
75932;SDS011;64803;52.356;5.310;2023-08-17T06:58:16;7.82;;;2.35;;
75932;SDS011;64803;52.356;5.310;2023-08-17T07:00:42;5.65;;;1.50;;
75932;SDS011;64803;52.356;5.310;2023-08-17T07:05:35;7.00;;;2.58;;
75932;SDS011;64803;52.356;5.310;2023-08-17T07:08:01;7.35;;;2.30;;
75932;SDS011;64803;52.356;5.310;2023-08-17T07:10:27;6.55;;;2.20;;
75932;SDS011;64803;52.356;5.310;2023-08-17T07:12:53;9.63;;;2.25;;
75932;SDS011;64803;52.356;5.310;2023-08-17T07:15:19;8.20;;;2.40;;
75932;SDS011;64803;52.356;5.310;2023-08-17T07:17:45;7.40;;;2.50;;
75932;SDS011;64803;52.356;5.310;2023-08-17T07:20:11;7.95;;;2.03;;
75932;SDS011;64803;52.356;5.310;2023-08-17T07:22:37;9.25;;;2.25;;
75932;SDS011;64803;52.356;5.310;2023-08-17T07:25:03;7.03;;;2.25;;
75932;SDS011;64803;52.356;5.310;2023-08-17T07:27:29;7.68;;;2.08;;
75932;SDS011;64803;52.356;5.310;2023-08-17T07:29:55;8.70;;;2.47;;
75932;SDS011;64803;52.356;5.310;2023-08-17T07:32:21;9.63;;;2.95;;
75932;SDS011;64803;52.356;5.310;2023-08-17T07:34:47;5.15;;;2.10;;
75932;SDS011;64803;52.356;5.310;2023-08-17T07:37:13;9.43;;;2.25;;
75932;SDS011;64803;52.356;5.310;2023-08-17T07:39:39;7.28;;;2.20;;
75932;SDS011;64803;52.356;5.310;2023-08-17T07:42:05;6.63;;;1.70;;
75932;SDS011;64803;52.356;5.310;2023-08-17T07:44:31;8.38;;;2.28;;
75932;SDS011;64803;52.356;5.310;2023-08-17T07:46:58;4.50;;;1.95;;
75932;SDS011;64803;52.356;5.310;2023-08-17T07:49:25;7.75;;;2.55;;
75932;SDS011;64803;52.356;5.310;2023-08-17T07:51:51;9.52;;;2.08;;
75932;SDS011;64803;52.356;5.310;2023-08-17T07:54:17;9.85;;;1.80;;
75932;SDS011;64803;52.356;5.310;2023-08-17T07:56:43;11.25;;;1.90;;
75932;SDS011;64803;52.356;5.310;2023-08-17T07:59:09;5.43;;;1.42;;
75932;SDS011;64803;52.356;5.310;2023-08-17T08:01:35;6.53;;;2.10;;
75932;SDS011;64803;52.356;5.310;2023-08-17T08:04:01;5.20;;;1.60;;
75932;SDS011;64803;52.356;5.310;2023-08-17T08:06:28;4.80;;;1.77;;
75932;SDS011;64803;52.356;5.310;2023-08-17T08:08:53;4.90;;;1.70;;
75932;SDS011;64803;52.356;5.310;2023-08-17T08:11:21;6.88;;;1.70;;
75932;SDS011;64803;52.356;5.310;2023-08-17T08:13:47;7.45;;;1.98;;
75932;SDS011;64803;52.356;5.310;2023-08-17T08:16:13;5.80;;;1.85;;
75932;SDS011;64803;52.356;5.310;2023-08-17T08:18:39;9.93;;;2.25;;
75932;SDS011;64803;52.356;5.310;2023-08-17T08:21:05;6.70;;;2.00;;
75932;SDS011;64803;52.356;5.310;2023-08-17T08:23:31;8.30;;;2.15;;
75932;SDS011;64803;52.356;5.310;2023-08-17T08:25:57;6.72;;;1.95;;
75932;SDS011;64803;52.356;5.310;2023-08-17T08:28:24;7.38;;;1.70;;
75932;SDS011;64803;52.356;5.310;2023-08-17T08:30:51;6.55;;;2.10;;
75932;SDS011;64803;52.356;5.310;2023-08-17T08:33:17;6.32;;;2.17;;
75932;SDS011;64803;52.356;5.310;2023-08-17T08:35:43;7.05;;;1.58;;
75932;SDS011;64803;52.356;5.310;2023-08-17T08:38:09;8.85;;;1.83;;
75932;SDS011;64803;52.356;5.310;2023-08-17T08:40:36;4.70;;;1.70;;
75932;SDS011;64803;52.356;5.310;2023-08-17T08:43:04;7.50;;;1.50;;
75932;SDS011;64803;52.356;5.310;2023-08-17T08:45:30;6.68;;;1.63;;
75932;SDS011;64803;52.356;5.310;2023-08-17T08:47:56;4.30;;;1.63;;
75932;SDS011;64803;52.356;5.310;2023-08-17T08:50:23;7.53;;;1.75;;
75932;SDS011;64803;52.356;5.310;2023-08-17T08:53:01;7.35;;;1.70;;
75932;SDS011;64803;52.356;5.310;2023-08-17T08:55:36;8.93;;;1.45;;
75932;SDS011;64803;52.356;5.310;2023-08-17T08:58:04;8.75;;;1.83;;
75932;SDS011;64803;52.356;5.310;2023-08-17T09:00:31;6.25;;;1.60;;
75932;SDS011;64803;52.356;5.310;2023-08-17T09:03:00;5.57;;;1.63;;
75932;SDS011;64803;52.356;5.310;2023-08-17T09:05:28;6.90;;;1.92;;
75932;SDS011;64803;52.356;5.310;2023-08-17T09:07:55;8.13;;;1.73;;
75932;SDS011;64803;52.356;5.310;2023-08-17T09:10:23;6.30;;;1.92;;
75932;SDS011;64803;52.356;5.310;2023-08-17T09:12:49;3.75;;;1.52;;
75932;SDS011;64803;52.356;5.310;2023-08-17T09:15:15;8.98;;;1.95;;
75932;SDS011;64803;52.356;5.310;2023-08-17T09:17:42;5.75;;;1.58;;
75932;SDS011;64803;52.356;5.310;2023-08-17T09:20:08;11.23;;;1.88;;
75932;SDS011;64803;52.356;5.310;2023-08-17T09:22:39;7.07;;;1.60;;
75932;SDS011;64803;52.356;5.310;2023-08-17T09:25:12;5.32;;;1.48;;
75932;SDS011;64803;52.356;5.310;2023-08-17T09:27:48;3.40;;;1.20;;
75932;SDS011;64803;52.356;5.310;2023-08-17T09:30:14;6.88;;;1.65;;
75932;SDS011;64803;52.356;5.310;2023-08-17T09:32:40;10.25;;;1.67;;
75932;SDS011;64803;52.356;5.310;2023-08-17T09:35:07;10.85;;;1.52;;
75932;SDS011;64803;52.356;5.310;2023-08-17T09:37:33;5.40;;;1.60;;
75932;SDS011;64803;52.356;5.310;2023-08-17T09:40:00;7.10;;;1.60;;
75932;SDS011;64803;52.356;5.310;2023-08-17T09:42:26;9.45;;;1.80;;
75932;SDS011;64803;52.356;5.310;2023-08-17T09:44:53;8.32;;;1.33;;
75932;SDS011;64803;52.356;5.310;2023-08-17T09:47:19;6.93;;;1.75;;
75932;SDS011;64803;52.356;5.310;2023-08-17T09:49:49;6.75;;;1.55;;
75932;SDS011;64803;52.356;5.310;2023-08-17T09:52:16;6.30;;;1.60;;
75932;SDS011;64803;52.356;5.310;2023-08-17T09:54:42;9.43;;;1.50;;
75932;SDS011;64803;52.356;5.310;2023-08-17T09:57:09;9.85;;;1.70;;
75932;SDS011;64803;52.356;5.310;2023-08-17T09:59:35;13.20;;;2.05;;
75932;SDS011;64803;52.356;5.310;2023-08-17T10:02:01;8.02;;;2.00;;
75932;SDS011;64803;52.356;5.310;2023-08-17T10:04:29;8.30;;;1.83;;
75932;SDS011;64803;52.356;5.310;2023-08-17T10:06:59;5.93;;;1.70;;
75932;SDS011;64803;52.356;5.310;2023-08-17T10:09:31;10.85;;;2.05;;
75932;SDS011;64803;52.356;5.310;2023-08-17T10:12:05;7.47;;;1.75;;
75932;SDS011;64803;52.356;5.310;2023-08-17T10:14:36;6.25;;;1.80;;
75932;SDS011;64803;52.356;5.310;2023-08-17T10:17:12;6.35;;;1.75;;
75932;SDS011;64803;52.356;5.310;2023-08-17T10:19:46;13.00;;;1.85;;
75932;SDS011;64803;52.356;5.310;2023-08-17T10:25:08;5.97;;;1.95;;
75932;SDS011;64803;52.356;5.310;2023-08-17T10:27:37;9.07;;;1.90;;
75932;SDS011;64803;52.356;5.310;2023-08-17T10:30:03;5.95;;;1.90;;
75932;SDS011;64803;52.356;5.310;2023-08-17T10:32:31;7.53;;;1.75;;
75932;SDS011;64803;52.356;5.310;2023-08-17T10:34:57;12.18;;;2.13;;
75932;SDS011;64803;52.356;5.310;2023-08-17T10:37:24;7.85;;;1.80;;
75932;SDS011;64803;52.356;5.310;2023-08-17T10:39:51;4.68;;;1.48;;
75932;SDS011;64803;52.356;5.310;2023-08-17T10:42:34;7.97;;;2.20;;
75932;SDS011;64803;52.356;5.310;2023-08-17T10:50:31;7.18;;;2.10;;
75932;SDS011;64803;52.356;5.310;2023-08-17T10:52:59;7.07;;;2.20;;
75932;SDS011;64803;52.356;5.310;2023-08-17T10:55:37;7.22;;;1.80;;
75932;SDS011;64803;52.356;5.310;2023-08-17T10:58:05;5.63;;;1.60;;
75932;SDS011;64803;52.356;5.310;2023-08-17T11:00:34;9.38;;;2.42;;
75932;SDS011;64803;52.356;5.310;2023-08-17T11:08:04;7.07;;;1.92;;
75932;SDS011;64803;52.356;5.310;2023-08-17T11:10:31;6.78;;;2.03;;
75932;SDS011;64803;52.356;5.310;2023-08-17T11:12:58;7.35;;;1.67;;
75932;SDS011;64803;52.356;5.310;2023-08-17T11:15:25;8.10;;;2.63;;
75932;SDS011;64803;52.356;5.310;2023-08-17T11:17:52;9.05;;;2.35;;
75932;SDS011;64803;52.356;5.310;2023-08-17T11:20:18;7.25;;;2.05;;
75932;SDS011;64803;52.356;5.310;2023-08-17T11:22:45;8.25;;;2.10;;
75932;SDS011;64803;52.356;5.310;2023-08-17T11:25:12;7.88;;;2.47;;
75932;SDS011;64803;52.356;5.310;2023-08-17T11:27:38;7.90;;;2.50;;
75932;SDS011;64803;52.356;5.310;2023-08-17T11:30:05;8.15;;;2.50;;
75932;SDS011;64803;52.356;5.310;2023-08-17T11:32:34;8.63;;;2.20;;
75932;SDS011;64803;52.356;5.310;2023-08-17T11:35:00;9.80;;;2.47;;
75932;SDS011;64803;52.356;5.310;2023-08-17T11:37:26;10.73;;;2.83;;
75932;SDS011;64803;52.356;5.310;2023-08-17T11:39:52;6.80;;;2.38;;
75932;SDS011;64803;52.356;5.310;2023-08-17T11:42:18;7.38;;;2.20;;
75932;SDS011;64803;52.356;5.310;2023-08-17T11:44:44;8.55;;;2.47;;
75932;SDS011;64803;52.356;5.310;2023-08-17T11:47:10;7.60;;;2.28;;
75932;SDS011;64803;52.356;5.310;2023-08-17T11:49:37;6.18;;;2.15;;
75932;SDS011;64803;52.356;5.310;2023-08-17T11:52:03;10.95;;;2.92;;
75932;SDS011;64803;52.356;5.310;2023-08-17T11:54:32;9.55;;;2.65;;
75932;SDS011;64803;52.356;5.310;2023-08-17T11:56:58;11.02;;;3.03;;
75932;SDS011;64803;52.356;5.310;2023-08-17T11:59:24;8.43;;;2.25;;
75932;SDS011;64803;52.356;5.310;2023-08-17T12:01:52;9.80;;;2.47;;
75932;SDS011;64803;52.356;5.310;2023-08-17T12:04:20;7.05;;;2.40;;
75932;SDS011;64803;52.356;5.310;2023-08-17T12:06:47;11.60;;;2.38;;
75932;SDS011;64803;52.356;5.310;2023-08-17T12:09:13;8.27;;;2.50;;
75932;SDS011;64803;52.356;5.310;2023-08-17T12:11:40;7.45;;;2.30;;
75932;SDS011;64803;52.356;5.310;2023-08-17T12:14:09;10.82;;;2.60;;
75932;SDS011;64803;52.356;5.310;2023-08-17T12:16:45;7.95;;;2.05;;
75932;SDS011;64803;52.356;5.310;2023-08-17T12:19:15;10.73;;;2.33;;
75932;SDS011;64803;52.356;5.310;2023-08-17T12:21:45;10.50;;;2.33;;
75932;SDS011;64803;52.356;5.310;2023-08-17T12:24:11;9.45;;;2.53;;
75932;SDS011;64803;52.356;5.310;2023-08-17T12:26:43;10.55;;;2.88;;
75932;SDS011;64803;52.356;5.310;2023-08-17T12:29:09;7.63;;;2.25;;
75932;SDS011;64803;52.356;5.310;2023-08-17T12:31:35;6.60;;;2.83;;
75932;SDS011;64803;52.356;5.310;2023-08-17T12:34:02;6.60;;;2.55;;
75932;SDS011;64803;52.356;5.310;2023-08-17T12:36:30;7.68;;;2.92;;
75932;SDS011;64803;52.356;5.310;2023-08-17T12:38:57;15.32;;;2.75;;
75932;SDS011;64803;52.356;5.310;2023-08-17T12:41:23;7.32;;;3.08;;
75932;SDS011;64803;52.356;5.310;2023-08-17T12:43:49;7.38;;;2.25;;
75932;SDS011;64803;52.356;5.310;2023-08-17T12:46:15;8.13;;;2.60;;
75932;SDS011;64803;52.356;5.310;2023-08-17T12:48:41;6.75;;;2.17;;
75932;SDS011;64803;52.356;5.310;2023-08-17T12:51:07;9.23;;;2.83;;
75932;SDS011;64803;52.356;5.310;2023-08-17T12:53:33;8.18;;;2.60;;
75932;SDS011;64803;52.356;5.310;2023-08-17T12:55:59;8.70;;;2.70;;
75932;SDS011;64803;52.356;5.310;2023-08-17T12:58:25;8.07;;;2.70;;
75932;SDS011;64803;52.356;5.310;2023-08-17T13:00:52;8.13;;;2.70;;
75932;SDS011;64803;52.356;5.310;2023-08-17T13:03:20;8.10;;;2.58;;
75932;SDS011;64803;52.356;5.310;2023-08-17T13:05:46;7.68;;;3.33;;
75932;SDS011;64803;52.356;5.310;2023-08-17T13:08:12;7.13;;;2.42;;
75932;SDS011;64803;52.356;5.310;2023-08-17T13:10:38;7.93;;;2.58;;
75932;SDS011;64803;52.356;5.310;2023-08-17T13:13:04;7.82;;;2.53;;
75932;SDS011;64803;52.356;5.310;2023-08-17T13:15:31;6.18;;;2.65;;
75932;SDS011;64803;52.356;5.310;2023-08-17T13:17:58;8.55;;;2.95;;
75932;SDS011;64803;52.356;5.310;2023-08-17T13:20:25;6.03;;;2.30;;
75932;SDS011;64803;52.356;5.310;2023-08-17T13:22:51;6.82;;;2.50;;
75932;SDS011;64803;52.356;5.310;2023-08-17T13:25:17;7.00;;;2.45;;
75932;SDS011;64803;52.356;5.310;2023-08-17T13:27:43;5.88;;;2.30;;
75932;SDS011;64803;52.356;5.310;2023-08-17T13:30:09;6.65;;;2.70;;
75932;SDS011;64803;52.356;5.310;2023-08-17T13:32:35;7.00;;;2.15;;
75932;SDS011;64803;52.356;5.310;2023-08-17T13:35:02;5.40;;;2.45;;
75932;SDS011;64803;52.356;5.310;2023-08-17T13:37:29;9.43;;;2.58;;
75932;SDS011;64803;52.356;5.310;2023-08-17T13:39:55;8.60;;;2.33;;
75932;SDS011;64803;52.356;5.310;2023-08-17T13:42:21;7.35;;;2.20;;
75932;SDS011;64803;52.356;5.310;2023-08-17T13:44:47;9.38;;;2.50;;
75932;SDS011;64803;52.356;5.310;2023-08-17T13:47:13;6.63;;;2.20;;
75932;SDS011;64803;52.356;5.310;2023-08-17T13:49:39;6.95;;;2.60;;
75932;SDS011;64803;52.356;5.310;2023-08-17T13:52:05;7.35;;;2.25;;
75932;SDS011;64803;52.356;5.310;2023-08-17T13:54:31;5.68;;;2.50;;
75932;SDS011;64803;52.356;5.310;2023-08-17T13:56:57;9.50;;;2.85;;
75932;SDS011;64803;52.356;5.310;2023-08-17T13:59:23;7.25;;;2.22;;
75932;SDS011;64803;52.356;5.310;2023-08-17T14:01:49;7.50;;;2.55;;
75932;SDS011;64803;52.356;5.310;2023-08-17T14:04:15;6.47;;;2.58;;
75932;SDS011;64803;52.356;5.310;2023-08-17T14:06:43;6.70;;;2.80;;
75932;SDS011;64803;52.356;5.310;2023-08-17T14:09:09;10.10;;;2.50;;
75932;SDS011;64803;52.356;5.310;2023-08-17T14:11:35;7.28;;;2.75;;
75932;SDS011;64803;52.356;5.310;2023-08-17T14:14:01;8.10;;;2.67;;
75932;SDS011;64803;52.356;5.310;2023-08-17T14:16:27;7.93;;;3.20;;
75932;SDS011;64803;52.356;5.310;2023-08-17T14:18:53;8.50;;;2.95;;
75932;SDS011;64803;52.356;5.310;2023-08-17T14:21:20;10.95;;;3.10;;
75932;SDS011;64803;52.356;5.310;2023-08-17T14:23:47;6.30;;;3.40;;
75932;SDS011;64803;52.356;5.310;2023-08-17T14:26:13;9.13;;;3.38;;
75932;SDS011;64803;52.356;5.310;2023-08-17T14:28:39;14.70;;;3.10;;
75932;SDS011;64803;52.356;5.310;2023-08-17T14:31:05;7.20;;;3.20;;
75932;SDS011;64803;52.356;5.310;2023-08-17T14:33:31;6.78;;;2.90;;
75932;SDS011;64803;52.356;5.310;2023-08-17T14:35:57;8.57;;;3.42;;
75932;SDS011;64803;52.356;5.310;2023-08-17T14:38:23;8.73;;;3.03;;
75932;SDS011;64803;52.356;5.310;2023-08-17T14:40:49;8.57;;;3.72;;
75932;SDS011;64803;52.356;5.310;2023-08-17T14:43:15;7.25;;;3.05;;
75932;SDS011;64803;52.356;5.310;2023-08-17T14:45:41;9.43;;;3.25;;
75932;SDS011;64803;52.356;5.310;2023-08-17T14:48:08;9.30;;;3.35;;
75932;SDS011;64803;52.356;5.310;2023-08-17T14:50:35;8.63;;;3.03;;
75932;SDS011;64803;52.356;5.310;2023-08-17T14:53:02;8.07;;;2.90;;
75932;SDS011;64803;52.356;5.310;2023-08-17T14:55:30;9.40;;;3.10;;
75932;SDS011;64803;52.356;5.310;2023-08-17T14:57:56;9.27;;;3.13;;
75932;SDS011;64803;52.356;5.310;2023-08-17T15:00:23;6.90;;;3.15;;
75932;SDS011;64803;52.356;5.310;2023-08-17T15:02:51;7.68;;;3.22;;
75932;SDS011;64803;52.356;5.310;2023-08-17T15:05:17;12.13;;;3.47;;
75932;SDS011;64803;52.356;5.310;2023-08-17T15:07:43;10.38;;;3.80;;
75932;SDS011;64803;52.356;5.310;2023-08-17T15:10:09;11.77;;;3.47;;